Time;durP1;ratioP1;P1;durP2;ratioP2;P2;SDS_P1;SDS_P2;PMS_P1;PMS_P2;Temp;Humidity;BMP_temperature;BMP_pressure;BME280_temperature;BME280_humidity;BME280_pressure;Samples;Min_cycle;Max_cycle;Signal;HPM_P1;HPM_P2
2023/04/04 00:01:30;;;;;;;2.95;1.48;;;-0.30;99.90;;;-1.18;91.43;98034.69;4999243;28;20112;-40
2023/04/04 00:03:56;;;;;;;2.15;1.17;;;-0.20;99.90;;;-1.23;92.46;98025.97;5004646;28;20025;-40
2023/04/04 00:06:22;;;;;;;2.33;1.30;;;-0.20;99.90;;;-1.31;94.55;98024.91;5009526;28;20076;-40
2023/04/04 00:08:47;;;;;;;4.20;1.20;;;-0.30;99.90;;;-1.32;95.27;98023.19;5010553;28;20509;-40
2023/04/04 00:11:13;;;;;;;4.03;1.30;;;-0.30;99.90;;;-1.34;95.87;98023.16;5003883;28;20084;-40
2023/04/04 00:13:39;;;;;;;2.38;1.33;;;-0.30;99.90;;;-1.35;95.98;98011.94;5007399;28;20219;-40
2023/04/04 00:16:05;;;;;;;2.60;1.30;;;-0.40;99.90;;;-1.38;97.12;98017.06;5007156;28;20048;-40
2023/04/04 00:18:31;;;;;;;5.15;1.70;;;-0.40;99.90;;;-1.40;95.56;98017.84;5006181;28;20892;-40
2023/04/04 00:20:58;;;;;;;2.47;1.63;;;-0.40;99.90;;;-1.41;96.12;98010.94;5009716;28;20046;-41
2023/04/04 00:23:24;;;;;;;5.35;1.50;;;-0.40;99.90;;;-1.46;96.65;98009.97;5008103;28;20079;-40
2023/04/04 00:25:51;;;;;;;5.13;1.50;;;-0.40;99.90;;;-1.48;97.23;98006.47;5012643;28;20029;-40
2023/04/04 00:28:20;;;;;;;1.80;1.00;;;-0.50;99.90;;;-1.52;97.65;98013.31;5008847;28;20030;-40
2023/04/04 00:30:47;;;;;;;2.40;1.55;;;-0.50;99.90;;;-1.48;95.58;98007.34;5002500;28;20030;-40
2023/04/04 00:33:13;;;;;;;3.70;1.50;;;-0.50;99.90;;;-1.44;94.65;98006.56;5009090;28;20041;-40
2023/04/04 00:35:40;;;;;;;4.00;1.30;;;-0.50;99.90;;;-1.48;95.62;97997.00;5003602;28;20516;-40
2023/04/04 00:38:06;;;;;;;6.35;1.35;;;-0.50;99.90;;;-1.41;94.96;98000.59;5008084;28;20038;-40
2023/04/04 00:40:52;;;;;;;3.35;1.67;;;-0.50;99.90;;;-1.37;93.78;97998.06;4995202;28;20029;-40
2023/04/04 00:43:18;;;;;;;3.30;1.40;;;-0.50;99.90;;;-1.40;93.35;97995.44;5008877;28;20105;-40
2023/04/04 00:45:45;;;;;;;4.43;1.30;;;-0.40;99.90;;;-1.44;94.60;97993.63;5011436;28;20025;-40
2023/04/04 00:48:11;;;;;;;2.97;1.30;;;-0.50;99.90;;;-1.43;93.60;97999.69;5008772;28;20041;-40
2023/04/04 00:50:36;;;;;;;2.50;1.30;;;-0.50;99.90;;;-1.54;94.67;97987.41;5007401;28;20182;-40
2023/04/04 00:53:02;;;;;;;3.25;1.67;;;-0.50;99.90;;;-1.55;95.37;97984.78;4996472;28;20026;-40
2023/04/04 00:55:28;;;;;;;2.78;1.52;;;-0.60;99.90;;;-1.57;96.12;97991.63;5011745;28;20059;-40
2023/04/04 00:57:54;;;;;;;4.10;1.60;;;-0.60;99.90;;;-1.65;97.78;97991.50;5010975;28;20052;-40
2023/04/04 01:00:20;;;;;;;2.33;1.48;;;-0.60;99.90;;;-1.67;97.92;97982.84;5007259;28;20164;-40
2023/04/04 01:02:46;;;;;;;1.80;1.20;;;-0.60;99.90;;;-1.66;97.96;97983.69;5010684;28;20068;-40
2023/04/04 01:05:12;;;;;;;2.88;1.63;;;-0.70;99.90;;;-1.65;97.03;97982.84;5008968;28;20029;-40
2023/04/04 01:07:38;;;;;;;4.88;1.58;;;-0.70;99.90;;;-1.68;96.41;97978.50;5005398;28;20694;-40
2023/04/04 01:10:05;;;;;;;4.13;1.60;;;-0.70;99.90;;;-1.67;96.21;97974.19;5010099;28;20053;-40
2023/04/04 01:12:31;;;;;;;3.17;1.67;;;-0.70;99.90;;;-1.69;96.45;97975.88;5000322;28;20181;-40
2023/04/04 01:14:57;;;;;;;1.80;1.23;;;-0.70;99.90;;;-1.71;96.28;97975.81;4999922;28;20033;-40
2023/04/04 01:17:23;;;;;;;2.30;1.27;;;-0.70;99.90;;;-1.75;96.67;97980.06;5007751;28;20037;-40
2023/04/04 01:20:03;;;;;;;5.68;1.77;;;-0.70;99.90;;;-1.78;97.22;97977.41;5002077;28;20033;-40
2023/04/04 01:22:30;;;;;;;2.38;1.27;;;-0.80;99.90;;;-1.89;97.47;97965.09;4999635;28;20529;-40
2023/04/04 01:24:57;;;;;;;3.58;1.55;;;-0.80;99.90;;;-1.89;98.22;97978.91;5005049;28;20021;-40
2023/04/04 01:27:23;;;;;;;3.67;1.20;;;-0.80;99.90;;;-1.92;97.37;97977.13;5004876;28;20034;-40
2023/04/04 01:29:49;;;;;;;2.05;1.35;;;-0.90;99.90;;;-1.99;98.43;97979.53;5005352;28;20028;-40
2023/04/04 01:32:32;;;;;;;3.30;1.60;;;-1.00;99.90;;;-2.13;99.86;97974.09;5005458;28;20041;-40
2023/04/04 01:35:45;;;;;;;4.43;1.88;;;-1.00;99.90;;;-2.19;100.00;97976.50;5002024;28;20093;-40
2023/04/04 01:38:36;;;;;;;3.10;1.52;;;-1.10;99.90;;;-2.40;100.00;97961.41;5005211;28;20041;-40
2023/04/04 01:41:07;;;;;;;2.17;1.42;;;-1.20;99.90;;;-2.34;100.00;97964.13;4998837;28;20044;-40
2023/04/04 01:43:32;;;;;;;2.03;1.38;;;-1.30;99.90;;;-2.43;100.00;97966.50;5001723;28;20132;-40
2023/04/04 01:45:59;;;;;;;3.58;1.58;;;-1.30;99.90;;;-2.47;100.00;97969.84;4996485;28;20436;-40
2023/04/04 01:48:26;;;;;;;5.70;2.08;;;-1.30;99.90;;;-2.49;100.00;97967.22;5004132;28;20037;-40
2023/04/04 01:50:52;;;;;;;5.47;1.50;;;-1.30;99.90;;;-2.47;100.00;97969.84;4997839;28;20041;-40
2023/04/04 01:53:18;;;;;;;4.45;1.40;;;-1.40;99.90;;;-2.62;100.00;97942.81;5021030;28;20028;-40
2023/04/04 01:55:43;;;;;;;2.80;1.50;;;-1.40;99.90;;;-2.56;100.00;97962.75;5008320;28;20033;-40
2023/04/04 01:58:09;;;;;;;2.80;1.45;;;-1.40;99.90;;;-2.73;100.00;97940.00;5008508;28;20773;-40
2023/04/04 02:00:35;;;;;;;4.32;1.45;;;-1.50;99.90;;;-2.60;100.00;97961.81;4997231;28;20358;-40
2023/04/04 02:03:01;;;;;;;2.40;1.25;;;-1.60;99.90;;;-2.65;100.00;97963.41;5004530;28;20040;-41
2023/04/04 02:05:27;;;;;;;3.67;1.50;;;-1.60;99.90;;;-2.67;100.00;97961.59;5002846;28;20037;-40
2023/04/04 02:07:53;;;;;;;3.95;1.67;;;-1.60;99.90;;;-2.70;100.00;97965.84;5006565;28;20104;-40
2023/04/04 02:10:19;;;;;;;4.10;1.63;;;-1.60;99.90;;;-2.78;100.00;97956.19;5000789;28;20033;-40
2023/04/04 02:12:45;;;;;;;1.67;1.42;;;-1.70;99.90;;;-2.79;100.00;97952.72;5007396;28;20082;-40
2023/04/04 02:15:11;;;;;;;3.13;1.55;;;-1.70;99.90;;;-2.78;100.00;97961.34;5002989;28;20025;-40
2023/04/04 02:17:38;;;;;;;4.45;1.85;;;-1.70;99.90;;;-2.96;100.00;97934.25;5000258;28;20492;-40
2023/04/04 02:20:05;;;;;;;2.92;1.80;;;-1.80;99.90;;;-2.83;100.00;97962.97;5002488;28;20034;-40
2023/04/04 02:22:31;;;;;;;3.20;1.45;;;-1.80;99.90;;;-2.78;100.00;97961.34;5007485;28;20366;-40
2023/04/04 02:24:57;;;;;;;7.72;1.75;;;-1.80;99.90;;;-2.79;100.00;97960.47;4995356;28;20692;-40
2023/04/04 02:27:23;;;;;;;2.92;1.25;;;-1.70;99.90;;;-2.78;100.00;97958.75;5002456;28;20040;-40
2023/04/04 02:29:49;;;;;;;3.97;1.50;;;-1.70;99.90;;;-2.76;100.00;97959.69;5013287;22;20249;-40
2023/04/04 02:32:14;;;;;;;5.07;1.42;;;-1.70;99.90;;;-2.78;100.00;97966.50;4999849;28;20040;-37
2023/04/04 02:34:40;;;;;;;2.13;1.60;;;-1.70;99.90;;;-2.79;100.00;97962.19;4995902;28;20406;-37
2023/04/04 02:37:06;;;;;;;4.80;1.73;;;-1.70;99.90;;;-2.79;100.00;97964.78;4997390;28;20052;-37
2023/04/04 02:39:31;;;;;;;2.53;1.63;;;-1.70;99.90;;;-2.81;100.00;97967.31;4989919;28;20550;-38
2023/04/04 02:41:57;;;;;;;3.03;1.60;;;-1.70;99.90;;;-2.79;100.00;97965.63;4997167;28;20034;-38
2023/04/04 02:44:23;;;;;;;7.00;2.08;;;-1.70;99.90;;;-2.86;100.00;97962.88;4985563;28;20108;-38
2023/04/04 02:46:48;;;;;;;3.58;1.83;;;-1.70;99.90;;;-2.79;100.00;97963.06;4989616;28;20210;-38
2023/04/04 02:49:14;;;;;;;3.97;1.90;;;-1.70;99.90;;;-2.82;100.00;97955.22;4991314;28;20025;-38
2023/04/04 02:51:40;;;;;;;4.35;1.70;;;-1.80;99.90;;;-2.88;100.00;97957.66;4983316;28;21017;-38
2023/04/04 02:54:06;;;;;;;3.40;1.50;;;-1.80;99.90;;;-2.94;100.00;97955.81;4991249;28;20480;-38
2023/04/04 02:56:32;;;;;;;3.00;1.75;;;-1.80;99.90;;;-2.96;100.00;97957.50;4985544;28;20213;-38
2023/04/04 02:58:58;;;;;;;4.25;1.55;;;-1.90;99.90;;;-2.98;100.00;97961.75;4991912;28;20041;-38
2023/04/04 03:01:24;;;;;;;1.90;1.40;;;-1.90;99.90;;;-3.00;100.00;97957.34;4991610;28;20041;-38
2023/04/04 03:03:50;;;;;;;3.47;1.77;;;-1.90;99.90;;;-3.02;100.00;97956.44;4986494;28;20034;-38
2023/04/04 03:06:16;;;;;;;3.83;1.60;;;-2.00;99.90;;;-3.04;100.00;97953.81;4992858;28;20239;-38
2023/04/04 03:08:41;;;;;;;3.30;1.55;;;-2.00;99.90;;;-3.06;100.00;97960.66;4988176;28;20124;-39
2023/04/04 03:11:07;;;;;;;2.13;1.38;;;-2.00;99.90;;;-3.10;100.00;97954.53;4984584;28;20641;-39
2023/04/04 03:13:32;;;;;;;3.03;1.42;;;-2.10;99.90;;;-3.12;100.00;97955.34;4988074;28;20042;-39
2023/04/04 03:16:07;;;;;;;5.82;1.42;;;-2.10;99.90;;;-3.19;100.00;97953.44;4981606;28;20128;-39
2023/04/04 03:18:33;;;;;;;3.10;1.55;;;-2.20;99.90;;;-3.21;100.00;97948.25;4977742;28;20109;-39
2023/04/04 03:20:59;;;;;;;4.13;1.67;;;-2.20;99.90;;;-3.22;100.00;97949.06;4990029;28;20042;-39
2023/04/04 03:23:25;;;;;;;3.63;1.90;;;-2.20;99.90;;;-3.21;100.00;97945.66;4984289;28;20046;-39
2023/04/04 03:25:50;;;;;;;6.05;1.80;;;-2.10;99.90;;;-3.17;100.00;97946.63;4985596;28;20526;-39
2023/04/04 03:28:16;;;;;;;2.65;1.50;;;-2.10;99.90;;;-3.20;100.00;97951.69;4985241;28;20044;-39
2023/04/04 03:30:42;;;;;;;4.20;1.42;;;-2.10;99.90;;;-3.22;100.00;97954.22;4981190;28;20038;-39
2023/04/04 03:33:08;;;;;;;3.47;1.50;;;-2.20;99.90;;;-3.21;100.00;97955.09;4989341;28;20077;-38
2023/04/04 03:35:41;;;;;;;3.10;1.52;;;-2.20;99.90;;;-3.20;100.00;97956.84;4984776;28;20026;-39
2023/04/04 03:38:08;;;;;;;3.10;1.67;;;-2.20;99.90;;;-3.22;100.00;97943.91;4986872;28;20561;-38
2023/04/04 03:40:34;;;;;;;3.55;1.55;;;-2.20;99.90;;;-3.22;100.00;97949.06;4992009;28;20060;-39
2023/04/04 03:43:01;;;;;;;2.22;1.50;;;-2.10;99.90;;;-3.21;100.00;97948.25;4998412;28;20034;-38
2023/04/04 03:45:28;;;;;;;3.15;1.60;;;-2.10;99.90;;;-3.20;100.00;97944.81;4997496;28;20033;-39
2023/04/04 03:47:54;;;;;;;6.38;2.13;;;-2.10;99.90;;;-3.23;100.00;97951.59;4987741;28;20120;-39
2023/04/04 03:50:19;;;;;;;2.88;1.58;;;-2.20;99.90;;;-3.22;100.00;97948.19;4990254;28;20095;-39
2023/04/04 03:52:46;;;;;;;4.25;1.80;;;-2.20;99.90;;;-3.26;100.00;97948.09;4987587;28;20025;-39
2023/04/04 03:55:12;;;;;;;3.58;1.80;;;-2.20;99.90;;;-3.28;100.00;97943.75;4977544;28;20033;-39
2023/04/04 03:57:38;;;;;;;3.10;1.85;;;-2.20;99.90;;;-3.39;100.00;97938.31;4986664;28;20035;-39
2023/04/04 04:00:04;;;;;;;3.65;1.92;;;-2.20;99.90;;;-3.30;100.00;97951.44;4999610;28;20559;-39
2023/04/04 04:02:30;;;;;;;3.58;1.85;;;-2.20;99.90;;;-3.31;100.00;97944.53;4995790;28;20127;-39
2023/04/04 04:04:55;;;;;;;4.18;2.00;;;-2.20;99.90;;;-3.30;100.00;97955.75;4989480;28;20053;-39
2023/04/04 04:07:21;;;;;;;3.20;1.75;;;-2.20;99.90;;;-3.35;100.00;97947.88;4989787;28;20125;-39
2023/04/04 04:09:47;;;;;;;4.20;1.75;;;-2.20;99.90;;;-3.34;100.00;97952.22;4991972;28;20455;-39
2023/04/04 04:12:13;;;;;;;5.40;1.80;;;-2.20;99.90;;;-3.32;100.00;97944.47;4993698;28;20112;-39
2023/04/04 04:14:38;;;;;;;4.20;1.55;;;-2.30;99.90;;;-3.37;100.00;97943.53;4994192;28;20145;-39
2023/04/04 04:17:04;;;;;;;2.97;1.88;;;-2.30;99.90;;;-3.38;100.00;97946.91;4982074;28;20037;-39
2023/04/04 04:19:30;;;;;;;5.45;2.00;;;-2.30;99.90;;;-3.43;100.00;97944.19;4991319;28;20482;-39
2023/04/04 04:21:56;;;;;;;3.15;1.70;;;-2.30;99.90;;;-3.42;100.00;97950.25;4984049;28;20283;-39
2023/04/04 04:24:22;;;;;;;5.30;1.70;;;-2.40;99.90;;;-3.45;100.00;97951.03;4992828;28;20547;-39
2023/04/04 04:26:47;;;;;;;6.45;2.10;;;-2.40;99.90;;;-3.49;100.00;97944.91;4995160;28;20533;-39
2023/04/04 04:29:13;;;;;;;3.80;1.90;;;-2.30;99.90;;;-3.43;100.00;97957.09;4988885;28;20537;-39
2023/04/04 04:31:39;;;;;;;5.18;2.05;;;-2.40;99.90;;;-3.46;100.00;97947.59;4984987;28;20037;-38
2023/04/04 04:34:07;;;;;;;3.72;1.90;;;-2.40;99.90;;;-3.45;100.00;97951.03;4988433;28;20384;-38
2023/04/04 04:36:34;;;;;;;4.03;1.90;;;-2.40;99.90;;;-3.45;100.00;97956.19;4995975;28;20041;-38
2023/04/04 04:39:00;;;;;;;2.97;1.80;;;-2.40;99.90;;;-3.49;100.00;97955.22;4973850;28;20038;-38
2023/04/04 04:41:28;;;;;;;2.78;1.85;;;-2.40;99.90;;;-3.49;100.00;97957.81;4979113;28;20034;-38
2023/04/04 04:43:54;;;;;;;4.70;2.00;;;-2.40;99.90;;;-3.51;100.00;97948.28;4987291;28;20072;-38
2023/04/04 04:46:20;;;;;;;3.58;1.92;;;-2.40;99.90;;;-3.60;100.00;97932.59;4990299;28;20044;-38
2023/04/04 04:48:46;;;;;;;2.53;1.67;;;-2.40;99.90;;;-3.57;100.00;97951.59;4982595;28;20050;-39
2023/04/04 04:51:13;;;;;;;3.38;2.10;;;-2.40;99.90;;;-3.51;100.00;97956.03;4992603;28;20145;-38
2023/04/04 04:53:39;;;;;;;4.95;2.13;;;-2.40;99.90;;;-3.53;100.00;97963.72;4994025;28;20112;-39
2023/04/04 04:56:06;;;;;;;4.25;2.30;;;-2.40;99.90;;;-3.54;100.00;97953.38;4993853;28;20025;-39
2023/04/04 04:58:32;;;;;;;3.65;2.08;;;-2.40;99.90;;;-3.45;100.00;97961.34;4994962;28;20036;-39
2023/04/04 05:00:58;;;;;;;3.67;1.85;;;-2.30;99.90;;;-3.47;100.00;97952.69;4987271;28;20083;-39
2023/04/04 05:03:23;;;;;;;3.17;2.00;;;-2.30;99.90;;;-3.44;100.00;97963.09;4988146;28;20103;-39
2023/04/04 05:05:50;;;;;;;3.28;2.00;;;-2.30;99.90;;;-3.43;100.00;97967.41;4992655;28;20120;-39
2023/04/04 05:08:15;;;;;;;5.57;2.08;;;-2.40;99.90;;;-3.43;100.00;97958.81;4981416;28;20439;-39
2023/04/04 05:10:41;;;;;;;4.28;2.00;;;-2.30;99.90;;;-3.41;100.00;97960.63;4980409;28;20088;-38
2023/04/04 05:13:08;;;;;;;3.35;2.20;;;-2.30;99.90;;;-3.39;100.00;97960.63;4986614;28;20040;-39
2023/04/04 05:15:34;;;;;;;3.38;2.05;;;-2.30;99.90;;;-3.40;100.00;97964.94;4988906;28;20030;-39
2023/04/04 05:18:00;;;;;;;4.10;1.88;;;-2.30;99.90;;;-3.36;100.00;97974.47;4997640;28;20041;-39
2023/04/04 05:20:26;;;;;;;4.25;2.22;;;-2.30;99.90;;;-3.34;100.00;97975.44;4991094;28;20026;-38
2023/04/04 05:22:52;;;;;;;3.28;2.13;;;-2.30;99.90;;;-3.32;100.00;97958.28;4989939;28;20053;-38
2023/04/04 05:25:18;;;;;;;5.75;2.00;;;-2.20;99.90;;;-3.23;100.00;97970.56;4996646;28;20104;-38
2023/04/04 05:27:47;;;;;;;5.50;2.80;;;-2.20;99.90;;;-3.15;100.00;97970.75;4993423;28;20089;-39
2023/04/04 05:30:13;;;;;;;3.55;2.13;;;-2.10;99.90;;;-3.07;100.00;97961.47;4994286;28;20064;-39
2023/04/04 05:32:39;;;;;;;3.20;2.05;;;-2.00;99.90;;;-3.01;100.00;97971.97;4994898;28;21115;-38
2023/04/04 05:35:05;;;;;;;3.83;2.20;;;-1.90;99.90;;;-2.95;100.00;97973.84;4996598;28;20029;-38
2023/04/04 05:37:31;;;;;;;4.20;2.15;;;-1.90;99.90;;;-2.95;100.00;97966.97;4994278;28;20057;-38
2023/04/04 05:39:56;;;;;;;4.35;2.00;;;-1.90;99.90;;;-2.85;100.00;97970.66;4988907;28;21533;-38
2023/04/04 05:42:22;;;;;;;3.00;2.08;;;-1.80;99.90;;;-2.79;100.00;97972.53;4991152;28;20498;-38
2023/04/04 05:44:48;;;;;;;4.22;2.25;;;-1.70;99.90;;;-2.74;100.00;97971.78;4987265;28;20392;-39
2023/04/04 05:47:14;;;;;;;6.28;2.42;;;-1.70;99.90;;;-2.71;100.00;97965.81;4992568;28;20146;-39
2023/04/04 05:49:40;;;;;;;4.93;2.00;;;-1.60;99.90;;;-2.62;100.00;97975.50;4988500;28;20057;-39
2023/04/04 05:52:06;;;;;;;5.95;2.20;;;-1.60;99.90;;;-2.57;100.00;97985.09;4993602;28;20038;-39
2023/04/04 05:54:32;;;;;;;4.38;2.50;;;-1.50;99.90;;;-2.53;100.00;97976.63;4995579;28;20029;-39
2023/04/04 05:56:57;;;;;;;3.88;2.47;;;-1.40;99.90;;;-2.42;100.00;97989.78;4993705;28;20402;-39
2023/04/04 05:59:23;;;;;;;3.55;2.13;;;-1.40;99.90;;;-2.35;100.00;97983.03;4991101;28;20018;-39
2023/04/04 06:01:49;;;;;;;5.43;2.30;;;-1.30;99.90;;;-2.29;100.00;97983.19;4987401;28;20081;-39
2023/04/04 06:04:15;;;;;;;3.83;2.15;;;-1.30;99.90;;;-2.16;100.00;97981.75;4991048;28;20046;-40
2023/04/04 06:06:40;;;;;;;4.53;2.28;;;-1.20;99.90;;;-2.15;100.00;97981.78;4984429;28;20034;-37
2023/04/04 06:09:06;;;;;;;5.10;2.30;;;-1.10;99.90;;;-2.07;100.00;97974.19;4994164;28;20061;-38
2023/04/04 06:11:32;;;;;;;3.88;2.28;;;-1.00;99.90;;;-1.86;98.77;97978.97;4990250;28;20022;-38
2023/04/04 06:13:58;;;;;;;2.97;1.88;;;-0.90;99.90;;;-1.82;98.40;97991.13;4984608;28;20068;-39
2023/04/04 06:16:25;;;;;;;3.60;2.03;;;-0.80;99.90;;;-1.84;98.59;97977.28;4988004;28;20474;-39
2023/04/04 06:18:51;;;;;;;3.90;2.15;;;-0.80;99.90;;;-1.68;95.53;97991.41;4987916;28;20033;-38
2023/04/04 06:21:16;;;;;;;5.22;2.35;;;-0.60;99.90;;;-1.67;94.93;97977.66;4988883;28;20042;-39
2023/04/04 06:23:42;;;;;;;2.47;1.90;;;-0.60;99.90;;;-1.59;92.44;97990.75;4986759;28;20364;-39
2023/04/04 06:26:08;;;;;;;4.18;2.20;;;-0.50;99.90;;;-1.51;92.77;97986.56;4987275;28;20243;-39
2023/04/04 06:28:33;;;;;;;4.22;2.10;;;-0.50;99.90;;;-1.45;92.26;97988.44;4988160;28;20467;-38
2023/04/04 06:30:59;;;;;;;2.95;2.03;;;-0.40;99.90;;;-1.45;90.93;97975.50;4984468;28;20034;-38
2023/04/04 06:33:25;;;;;;;2.55;1.90;;;-0.40;99.90;;;-1.47;88.04;97967.72;4991077;28;20037;-38
2023/04/04 06:35:51;;;;;;;3.95;2.05;;;-0.30;99.90;;;-1.40;89.78;97977.34;4989511;28;20030;-38
2023/04/04 06:38:16;;;;;;;6.10;2.58;;;-0.30;99.90;;;-1.21;86.48;97981.13;4991258;28;20162;-38
2023/04/04 06:40:42;;;;;;;4.68;2.35;;;-0.30;99.90;;;-1.20;85.47;97984.63;4990275;28;20283;-39
2023/04/04 06:43:08;;;;;;;5.70;2.60;;;-0.20;99.90;;;-1.20;87.11;97980.31;4995883;28;20029;-38
2023/04/04 06:45:34;;;;;;;4.32;2.35;;;-0.10;99.90;;;-1.33;86.99;97954.16;4997945;28;20032;-38
2023/04/04 06:48:01;;;;;;;4.45;2.30;;;-0.10;99.90;;;-1.07;86.88;97980.53;4997728;28;20034;-38
2023/04/04 06:50:32;;;;;;;4.20;2.53;;;0.00;99.90;;;-1.02;86.48;97981.50;5001301;28;20084;-39
2023/04/04 06:53:00;;;;;;;5.22;2.35;;;0.00;99.90;;;-0.97;85.20;97985.00;4999466;28;20033;-39
2023/04/04 06:55:26;;;;;;;5.50;2.05;;;0.00;99.90;;;-0.90;84.88;97986.88;5001207;28;20199;-39
2023/04/04 06:57:52;;;;;;;5.68;2.28;;;0.10;99.90;;;-0.81;84.73;97980.97;4998664;28;20041;-39
2023/04/04 07:00:18;;;;;;;7.88;2.47;;;0.20;99.90;;;-0.66;86.58;97980.38;4998297;28;20476;-39
2023/04/04 07:02:44;;;;;;;3.67;2.17;;;0.30;99.90;;;-0.45;82.76;97975.56;4999109;28;20394;-39
2023/04/04 07:05:11;;;;;;;4.85;2.17;;;0.40;99.90;;;-0.56;77.70;97974.50;4997412;28;20037;-39
2023/04/04 07:07:36;;;;;;;2.20;1.67;;;0.50;99.90;;;-0.53;77.59;97971.09;4999331;28;20030;-40
2023/04/04 07:10:02;;;;;;;5.15;2.08;;;0.50;99.90;;;-0.42;77.18;97979.91;4995394;28;20041;-39
2023/04/04 07:12:30;;;;;;;4.63;2.03;;;0.50;99.90;;;-0.44;76.82;97976.41;5003321;28;20382;-39
2023/04/04 07:14:56;;;;;;;3.05;1.95;;;0.60;99.90;;;-0.42;80.70;97975.59;4996072;28;20036;-39
2023/04/04 07:17:21;;;;;;;4.55;2.10;;;0.60;99.90;;;-0.29;75.20;97981.81;5004153;28;20038;-39
2023/04/04 07:19:47;;;;;;;3.25;1.90;;;0.70;99.90;;;-0.24;72.53;97971.53;4999019;28;20040;-39
2023/04/04 07:22:13;;;;;;;3.25;1.88;;;0.80;99.90;;;-0.14;72.47;97980.31;4998362;28;20026;-39
2023/04/04 07:24:40;;;;;;;6.30;2.25;;;0.80;99.90;;;-0.10;71.79;97976.94;4994585;28;20029;-40
2023/04/04 07:27:06;;;;;;;3.83;1.95;;;0.90;99.90;;;-0.03;72.62;97984.81;4988961;28;20038;-39
2023/04/04 07:29:32;;;;;;;5.10;2.15;;;1.00;99.90;;;0.13;69.01;97987.63;4998576;28;20032;-39
2023/04/04 07:31:57;;;;;;;5.25;2.20;;;1.10;99.90;;;0.13;69.41;97978.13;4997446;28;20528;-38
2023/04/04 07:34:25;;;;;;;3.63;1.83;;;1.10;99.90;;;0.17;73.27;97985.09;4998639;28;20033;-38
2023/04/04 07:36:52;;;;;;;4.57;1.80;;;1.20;99.90;;;0.23;72.32;97989.47;4993990;28;20060;-39
2023/04/04 07:39:18;;;;;;;5.05;2.22;;;1.20;99.90;;;0.34;70.71;97977.53;4997097;28;20041;-39
2023/04/04 07:41:43;;;;;;;6.05;2.17;;;1.30;99.90;;;0.44;66.88;97975.94;4994591;28;20034;-39
2023/04/04 07:44:09;;;;;;;2.95;1.92;;;1.40;99.90;;;0.52;67.84;97989.88;4994112;28;20041;-39
2023/04/04 07:46:35;;;;;;;3.55;2.03;;;1.50;99.90;;;0.60;64.02;97978.72;4989268;28;20056;-39
2023/04/04 07:49:01;;;;;;;4.63;2.13;;;1.60;99.90;;;0.67;63.29;97980.53;4996748;28;20081;-39
2023/04/04 07:51:28;;;;;;;6.85;1.90;;;1.60;99.90;;;0.73;63.96;97978.00;4998300;28;20030;-39
2023/04/04 07:53:55;;;;;;;4.30;2.10;;;1.70;99.90;;;0.83;64.37;97981.59;4996587;28;20061;-39
2023/04/04 07:56:21;;;;;;;2.35;1.65;;;1.80;99.90;;;0.90;63.21;97980.78;4991022;28;20107;-40
2023/04/04 07:58:47;;;;;;;5.50;2.20;;;1.90;99.90;;;0.97;61.76;97984.31;4996439;28;20390;-39
2023/04/04 08:01:12;;;;;;;6.30;2.13;;;2.00;99.90;;;1.06;60.91;97974.00;5001586;28;20115;-39
2023/04/04 08:03:38;;;;;;;3.97;1.95;;;2.00;99.90;;;1.31;59.76;97977.72;5002228;28;20033;-39
2023/04/04 08:06:04;;;;;;;3.38;1.50;;;2.10;99.90;;;1.36;60.67;97980.34;4994428;28;20506;-39
2023/04/04 08:08:30;;;;;;;3.78;2.10;;;2.30;99.90;;;1.42;59.18;97986.50;4997438;28;20043;-38
2023/04/04 08:10:56;;;;;;;4.72;1.88;;;2.40;99.90;;;1.44;59.72;97974.38;4996951;28;20742;-39
2023/04/04 08:13:22;;;;;;;5.45;2.00;;;2.40;99.90;;;1.59;57.38;97976.22;4997682;28;20778;-39
2023/04/04 08:15:48;;;;;;;8.43;2.33;;;2.50;99.90;;;1.64;58.63;97971.06;4999640;28;20038;-39
2023/04/04 08:18:14;;;;;;;3.85;2.10;;;2.60;99.90;;;1.79;58.72;97975.50;5000226;28;20040;-39
2023/04/04 08:20:40;;;;;;;4.55;1.83;;;2.60;99.90;;;1.84;58.23;97979.88;5001502;28;20026;-39
2023/04/04 08:23:06;;;;;;;5.22;2.08;;;2.70;99.90;;;1.99;57.84;97973.94;4994375;28;20029;-39
2023/04/04 08:25:33;;;;;;;6.20;2.17;;;2.80;99.90;;;2.14;57.87;97975.75;4996473;28;20029;-39
2023/04/04 08:27:59;;;;;;;4.68;2.03;;;3.00;99.90;;;2.24;57.18;97974.94;4994996;28;20053;-39
2023/04/04 08:30:25;;;;;;;3.17;1.70;;;3.10;99.90;;;2.35;57.47;97977.59;5015287;22;20234;-39
2023/04/04 08:32:51;;;;;;;3.70;1.95;;;3.20;99.90;;;2.43;56.69;97970.66;4997879;28;20034;-37
2023/04/04 08:35:16;;;;;;;4.00;2.40;;;3.30;99.90;;;2.52;55.83;97976.78;4997459;28;20041;-37
2023/04/04 08:37:45;;;;;;;3.90;2.05;;;3.40;99.90;;;2.68;53.89;97966.44;4997656;28;20041;-37
2023/04/04 08:40:11;;;;;;;3.20;2.03;;;3.50;99.90;;;2.82;55.27;97976.03;4984170;28;20423;-37
2023/04/04 08:42:40;;;;;;;4.88;1.88;;;3.60;99.90;;;2.80;54.50;97976.03;4996665;28;20243;-39
2023/04/04 08:45:11;;;;;;;2.92;2.17;;;3.60;99.90;;;2.88;55.62;97973.44;4997586;28;20037;-37
2023/04/04 08:47:37;;;;;;;3.70;2.00;;;3.70;99.90;;;2.87;54.38;97982.13;4994566;28;20042;-37
2023/04/04 08:50:06;;;;;;;4.28;1.90;;;3.70;99.90;;;2.88;54.04;97977.78;4991591;28;20033;-37
2023/04/04 08:52:35;;;;;;;3.45;1.77;;;3.70;99.90;;;2.90;53.51;97965.63;4975939;28;20385;-37
2023/04/04 08:55:05;;;;;;;5.30;2.20;;;3.80;99.90;;;2.88;55.00;97972.59;4994779;28;20678;-37
2023/04/04 08:57:32;;;;;;;4.32;2.53;;;3.80;99.90;;;3.04;54.89;97969.16;4996918;28;20032;-37
2023/04/04 08:59:58;;;;;;;8.05;2.00;;;3.90;99.90;;;3.06;54.52;97978.69;4994253;28;20089;-37
2023/04/04 09:02:43;;;;;;;4.25;1.77;;;3.90;99.90;;;3.28;51.12;97976.13;5000113;28;20034;-38
2023/04/04 09:05:11;;;;;;;5.72;1.90;;;3.90;99.90;;;3.10;52.62;97973.50;4991849;28;20030;-38
2023/04/04 09:07:37;;;;;;;3.75;2.00;;;3.90;99.90;;;3.11;52.14;97975.25;5011232;28;20033;-38
2023/04/04 09:10:03;;;;;;;5.15;2.10;;;3.90;99.90;;;3.25;51.78;97984.81;4992943;28;20029;-38
2023/04/04 09:12:33;;;;;;;5.07;1.95;;;4.00;99.80;;;3.27;51.46;97979.63;4993207;28;20052;-38
2023/04/04 09:15:00;;;;;;;6.80;2.25;;;4.10;99.60;;;3.33;51.02;97986.56;4990686;28;20490;-38
2023/04/04 09:17:26;;;;;;;5.22;2.13;;;4.20;99.40;;;3.24;50.44;97977.84;4992450;28;20409;-37
2023/04/04 09:19:53;;;;;;;4.03;2.20;;;4.10;98.60;;;3.22;50.98;97977.00;4992205;28;20026;-37
2023/04/04 09:22:18;;;;;;;3.78;2.10;;;4.10;98.90;;;3.21;50.89;97985.69;4997641;28;20042;-37
2023/04/04 09:24:47;;;;;;;5.78;1.95;;;4.10;98.70;;;3.30;50.55;97979.59;4992818;28;20461;-38
2023/04/04 09:27:15;;;;;;;4.78;2.08;;;4.10;98.60;;;3.30;49.97;97983.94;4998427;28;20107;-37
2023/04/04 09:29:41;;;;;;;3.58;1.77;;;4.20;98.10;;;3.28;50.05;97977.88;4998460;28;20402;-37
2023/04/04 09:32:14;;;;;;;3.15;1.90;;;4.10;98.00;;;3.30;50.55;97979.59;4995211;28;20588;-37
2023/04/04 09:34:42;;;;;;;4.10;2.15;;;4.20;98.20;;;3.37;49.08;97978.72;4992119;28;20413;-37
2023/04/04 09:37:09;;;;;;;4.28;2.20;;;4.20;97.80;;;3.39;49.19;97976.13;4993366;28;20026;-37
2023/04/04 09:39:39;;;;;;;3.22;1.80;;;4.20;97.30;;;3.53;48.29;97982.22;4996603;28;20030;-37
2023/04/04 09:42:06;;;;;;;3.35;1.77;;;4.30;96.90;;;3.68;47.76;97983.09;4990376;28;20058;-38
2023/04/04 09:44:33;;;;;;;2.97;1.95;;;4.40;97.10;;;3.66;47.66;97985.72;5012021;28;20117;-37
2023/04/04 09:47:24;;;;;;;3.47;2.05;;;4.50;96.50;;;3.73;48.03;97989.19;4990610;28;20287;-37
2023/04/04 09:49:50;;;;;;;3.97;2.15;;;4.50;96.70;;;3.82;47.78;97989.19;4992289;28;20048;-37
2023/04/04 09:52:20;;;;;;;4.95;2.17;;;4.60;96.10;;;3.90;47.47;97986.59;4992253;28;20045;-37
2023/04/04 09:55:03;;;;;;;2.63;1.90;;;4.60;96.00;;;3.94;48.03;97985.69;4993503;28;20041;-37
2023/04/04 09:57:31;;;;;;;3.00;2.00;;;4.80;95.90;;;4.14;47.82;97990.88;4991511;28;20026;-38
2023/04/04 10:00:03;;;;;;;4.03;1.95;;;4.80;96.20;;;4.16;47.20;97983.91;4993823;28;20792;-38
2023/04/04 10:02:32;;;;;;;5.82;2.05;;;4.90;95.70;;;4.30;46.68;97987.38;4997853;28;20057;-38
2023/04/04 10:04:58;;;;;;;3.47;2.05;;;5.10;95.50;;;4.35;46.54;97971.69;4988901;28;20038;-38
2023/04/04 10:07:28;;;;;;;5.65;2.20;;;5.10;95.30;;;4.35;46.29;97971.69;4990668;28;20108;-38
2023/04/04 10:09:54;;;;;;;5.25;2.45;;;5.20;95.30;;;4.40;46.94;97973.41;4988462;28;20101;-38
2023/04/04 10:12:26;;;;;;;6.45;2.35;;;5.20;95.10;;;4.47;46.94;97973.38;4990381;28;20056;-38
2023/04/04 10:14:56;;;;;;;6.57;2.08;;;5.30;94.90;;;4.54;46.72;97972.47;4997048;28;20034;-38
2023/04/04 10:17:24;;;;;;;4.03;2.05;;;5.40;95.20;;;4.62;46.62;97981.19;4995169;28;20042;-38
2023/04/04 10:19:51;;;;;;;5.43;2.20;;;5.40;95.00;;;4.51;46.44;97972.53;4994547;28;20038;-38